createdAt,value
2022-12-11T00:01:32.452Z,41.67
2022-12-11T00:03:58.829Z,38.03
2022-12-11T00:06:25.263Z,40.40
2022-12-11T00:08:53.959Z,42.00
2022-12-11T00:11:21.595Z,38.85
2022-12-11T00:13:48.048Z,40.80
2022-12-11T00:16:15.413Z,43.35
2022-12-11T00:18:41.813Z,42.83
2022-12-11T00:21:11.119Z,44.88
2022-12-11T00:23:38.064Z,42.95
2022-12-11T00:26:13.735Z,42.17
2022-12-11T00:28:41.641Z,42.25
2022-12-11T00:31:11.354Z,43.50
2022-12-11T00:33:37.711Z,43.95
2022-12-11T00:36:04.310Z,44.80
2022-12-11T00:38:30.694Z,43.35
2022-12-11T00:41:00.030Z,38.38
2022-12-11T00:43:26.374Z,41.58
2022-12-11T00:45:53.040Z,43.65
2022-12-11T00:48:19.493Z,44.47
2022-12-11T00:50:46.321Z,47.20
2022-12-11T00:53:12.685Z,47.08
2022-12-11T00:55:41.197Z,44.88
2022-12-11T00:58:08.483Z,45.17
2022-12-11T01:00:35.254Z,47.10
2022-12-11T01:03:01.810Z,43.20
2022-12-11T01:05:28.347Z,48.22
2022-12-11T01:07:54.933Z,44.65
2022-12-11T01:10:24.727Z,43.88
2022-12-11T01:12:51.083Z,44.50
2022-12-11T01:15:18.875Z,48.30
2022-12-11T01:17:45.348Z,44.08
2022-12-11T01:20:12.312Z,44.13
2022-12-11T01:22:39.394Z,45.42
2022-12-11T01:25:06.185Z,42.05
2022-12-11T01:27:32.608Z,44.55
2022-12-11T01:29:59.213Z,42.58
2022-12-11T01:32:25.600Z,40.13
2022-12-11T01:34:51.982Z,43.10
2022-12-11T01:37:18.337Z,45.35
2022-12-11T01:39:50.265Z,42.10
2022-12-11T01:42:20.529Z,47.10
2022-12-11T01:44:46.811Z,39.83
2022-12-11T01:47:13.924Z,37.33
2022-12-11T01:49:41.652Z,40.25
2022-12-11T01:52:13.952Z,41.05
2022-12-11T01:54:41.970Z,40.65
2022-12-11T01:57:11.031Z,35.40
2022-12-11T01:59:39.686Z,37.30
2022-12-11T02:02:20.358Z,40.70
2022-12-11T02:04:48.565Z,40.63
2022-12-11T02:07:15.508Z,40.85
2022-12-11T02:09:44.961Z,42.17
2022-12-11T02:12:16.513Z,42.35
2022-12-11T02:14:48.719Z,43.42
2022-12-11T02:17:25.948Z,38.88
2022-12-11T02:20:02.151Z,40.97
2022-12-11T02:22:48.459Z,33.25
2022-12-11T02:25:32.968Z,37.97
2022-12-11T02:28:31.793Z,41.22
2022-12-11T02:31:07.112Z,38.38
2022-12-11T02:33:43.786Z,39.17
2022-12-11T02:36:10.539Z,39.85
2022-12-11T02:38:41.700Z,37.90
2022-12-11T02:41:10.448Z,41.03
2022-12-11T02:43:38.213Z,35.67
2022-12-11T02:46:07.344Z,39.53
2022-12-11T02:48:34.685Z,37.13
2022-12-11T02:51:03.086Z,38.20
2022-12-11T02:53:32.475Z,31.08
2022-12-11T02:56:06.587Z,32.92
2022-12-11T02:58:34.336Z,35.10
2022-12-11T03:01:00.914Z,32.95
2022-12-11T03:03:30.676Z,34.22
2022-12-11T03:05:57.058Z,30.58
2022-12-11T03:08:23.452Z,32.00
2022-12-11T03:10:50.204Z,30.48
2022-12-11T03:13:19.267Z,29.55
2022-12-11T03:16:24.054Z,30.55
2022-12-11T03:19:05.852Z,32.75
2022-12-11T03:21:38.885Z,31.38
2022-12-11T03:24:13.692Z,33.95
2022-12-11T03:26:43.890Z,28.08
2022-12-11T03:32:13.506Z,28.45
2022-12-11T03:35:01.952Z,28.95
2022-12-11T03:37:32.746Z,27.75
2022-12-11T03:40:06.334Z,26.27
2022-12-11T03:42:34.001Z,32.45
2022-12-11T03:45:04.451Z,34.78
2022-12-11T03:47:32.305Z,33.83
2022-12-11T03:50:00.653Z,32.85
2022-12-11T03:52:29.088Z,29.70
2022-12-11T03:54:59.704Z,31.33
2022-12-11T03:57:30.417Z,29.70
2022-12-11T03:59:57.303Z,31.27
2022-12-11T04:02:23.958Z,31.60
2022-12-11T04:04:50.420Z,27.05
2022-12-11T04:07:17.002Z,28.17
2022-12-11T04:09:43.399Z,29.27
2022-12-11T04:12:09.791Z,27.92
2022-12-11T04:14:54.805Z,32.20
2022-12-11T04:17:39.617Z,25.73
2022-12-11T04:20:25.295Z,27.83
2022-12-11T04:23:10.179Z,26.20
2022-12-11T04:25:36.561Z,29.45
2022-12-11T04:28:02.971Z,27.23
2022-12-11T04:30:33.951Z,27.33
2022-12-11T04:33:00.737Z,27.27
2022-12-11T04:35:27.085Z,25.13
2022-12-11T04:37:53.487Z,26.50
2022-12-11T04:40:20.538Z,28.63
2022-12-11T04:42:47.036Z,27.90
2022-12-11T04:45:13.810Z,30.00
2022-12-11T04:47:40.946Z,31.38
2022-12-11T04:50:09.900Z,30.33
2022-12-11T04:52:36.290Z,32.83
2022-12-11T04:55:05.401Z,26.48
2022-12-11T04:57:31.771Z,29.98
2022-12-11T04:59:58.155Z,30.60
2022-12-11T05:02:24.572Z,26.23
2022-12-11T05:04:50.940Z,26.98
2022-12-11T05:07:17.327Z,29.88
2022-12-11T05:09:43.690Z,27.23
2022-12-11T05:12:10.140Z,28.23
2022-12-11T05:14:36.550Z,28.30
2022-12-11T05:17:03.040Z,28.40
2022-12-11T05:19:29.461Z,29.27
2022-12-11T05:21:55.823Z,30.40
2022-12-11T05:24:22.254Z,35.70
2022-12-11T05:26:48.633Z,31.58
2022-12-11T05:29:15.001Z,29.77
2022-12-11T05:31:41.487Z,36.10
2022-12-11T05:34:08.129Z,35.92
2022-12-11T05:36:34.865Z,36.60
2022-12-11T05:39:01.839Z,22.05
2022-12-11T05:41:30.158Z,29.02
2022-12-11T05:43:56.736Z,28.33
2022-12-11T05:46:25.963Z,27.95
2022-12-11T05:48:56.283Z,33.53
2022-12-11T05:51:23.486Z,28.17
2022-12-11T05:53:52.275Z,28.23
2022-12-11T05:56:21.594Z,28.80
2022-12-11T05:58:49.212Z,24.50
2022-12-11T06:01:33.747Z,24.48
2022-12-11T06:04:01.116Z,25.08
2022-12-11T06:06:28.583Z,21.80
2022-12-11T06:08:57.583Z,28.80
2022-12-11T06:11:25.808Z,27.85
2022-12-11T06:13:52.779Z,26.83
2022-12-11T06:16:19.548Z,23.50
2022-12-11T06:18:46.362Z,22.20
2022-12-11T06:21:19.420Z,23.00
2022-12-11T06:23:47.267Z,22.65
2022-12-11T06:26:15.316Z,21.17
2022-12-11T06:28:41.808Z,18.83
2022-12-11T06:31:08.397Z,15.68
2022-12-11T06:33:35.606Z,19.48
2022-12-11T06:36:07.457Z,17.92
2022-12-11T06:38:33.865Z,24.02
2022-12-11T06:41:04.629Z,20.77
2022-12-11T06:43:38.725Z,24.00
2022-12-11T06:46:16.382Z,13.88
2022-12-11T06:48:43.970Z,23.58
2022-12-11T06:51:15.947Z,23.45
2022-12-11T06:53:42.699Z,30.55
2022-12-11T06:56:11.664Z,21.92
2022-12-11T06:58:39.940Z,24.67
2022-12-11T07:01:15.112Z,24.10
2022-12-11T07:03:41.584Z,24.08
2022-12-11T07:06:08.095Z,21.20
2022-12-11T07:08:34.877Z,19.45
2022-12-11T07:11:09.656Z,21.58
2022-12-11T07:13:36.166Z,22.65
2022-12-11T07:16:04.550Z,22.58
2022-12-11T07:18:34.536Z,23.85
2022-12-11T07:21:01.059Z,22.73
2022-12-11T07:23:28.383Z,21.80
2022-12-11T07:25:55.547Z,20.25
2022-12-11T07:28:22.170Z,20.88
2022-12-11T07:30:48.929Z,21.63
2022-12-11T07:33:15.963Z,23.27
2022-12-11T07:35:42.588Z,20.52
2022-12-11T07:38:08.973Z,20.80
2022-12-11T07:40:35.317Z,18.65
2022-12-11T07:43:01.681Z,20.25
2022-12-11T07:45:28.175Z,22.25
2022-12-11T07:47:54.584Z,22.58
2022-12-11T07:50:21.008Z,20.02
2022-12-11T07:52:47.343Z,21.05
2022-12-11T07:55:13.825Z,23.48
2022-12-11T07:57:40.613Z,21.42
2022-12-11T08:00:07.689Z,19.48
2022-12-11T08:02:37.235Z,18.77
2022-12-11T08:05:04.531Z,19.20
2022-12-11T08:07:30.893Z,19.98
2022-12-11T08:09:57.224Z,21.35
2022-12-11T08:12:23.594Z,58.45
2022-12-11T08:14:49.955Z,12.82
2022-12-11T08:17:16.306Z,21.23
2022-12-11T08:19:42.705Z,17.95
2022-12-11T08:22:13.204Z,25.10
2022-12-11T08:24:39.635Z,21.83
2022-12-11T08:27:08.494Z,17.77
2022-12-11T08:29:34.850Z,18.77
2022-12-11T08:32:01.339Z,19.85
2022-12-11T08:34:27.716Z,19.83
2022-12-11T08:36:54.109Z,21.23
2022-12-11T08:39:20.460Z,19.20
2022-12-11T08:41:46.923Z,19.88
2022-12-11T08:44:16.625Z,17.42
2022-12-11T08:46:43.872Z,18.33
2022-12-11T08:49:10.379Z,20.40
2022-12-11T08:51:36.726Z,18.75
2022-12-11T08:54:03.218Z,24.92
2022-12-11T08:56:30.385Z,21.58
2022-12-11T08:59:00.576Z,23.27
2022-12-11T09:03:56.493Z,21.95
2022-12-11T09:06:25.516Z,20.55
2022-12-11T09:08:53.507Z,18.20
2022-12-11T09:11:23.861Z,23.35
2022-12-11T09:16:18.985Z,20.75
2022-12-11T09:18:47.331Z,18.17
2022-12-11T09:21:18.494Z,20.35
2022-12-11T09:23:45.896Z,22.70
2022-12-11T09:26:15.530Z,22.33
2022-12-11T09:28:46.510Z,22.92
2022-12-11T09:31:16.536Z,17.60
2022-12-11T09:33:43.639Z,23.98
2022-12-11T09:36:10.706Z,24.60
2022-12-11T09:38:37.502Z,21.25
2022-12-11T09:41:21.921Z,18.95
2022-12-11T09:44:03.574Z,17.98
2022-12-11T09:46:34.354Z,18.73
2022-12-11T09:49:03.048Z,21.98
2022-12-11T09:51:47.788Z,19.63
2022-12-11T09:54:15.074Z,20.50
2022-12-11T09:56:57.328Z,21.90
2022-12-11T09:59:43.330Z,21.70
2022-12-11T10:02:35.576Z,17.77
2022-12-11T10:05:31.224Z,14.75
2022-12-11T10:08:05.641Z,21.35
2022-12-11T10:10:51.224Z,19.55
2022-12-11T10:13:54.741Z,15.88
2022-12-11T10:16:32.131Z,19.70
2022-12-11T10:18:58.582Z,18.27
2022-12-11T10:21:26.293Z,18.92
2022-12-11T10:23:58.325Z,14.70
2022-12-11T10:26:24.793Z,20.08
2022-12-11T10:28:51.275Z,18.10
2022-12-11T10:31:49.509Z,17.77
2022-12-11T10:34:28.517Z,21.15
2022-12-11T10:37:00.312Z,18.50
2022-12-11T10:39:26.953Z,19.23
2022-12-11T10:41:55.239Z,18.05
2022-12-11T10:44:21.539Z,18.65
2022-12-11T10:47:01.447Z,19.92
2022-12-11T10:49:30.480Z,21.38
2022-12-11T10:51:58.225Z,16.52
2022-12-11T10:54:38.189Z,19.35
2022-12-11T10:57:07.496Z,20.52
2022-12-11T10:59:37.330Z,20.27
2022-12-11T11:02:06.468Z,20.45
2022-12-11T11:04:36.859Z,23.35
2022-12-11T11:07:12.902Z,20.20
2022-12-11T11:09:40.065Z,18.85
2022-12-11T11:12:22.009Z,17.80
2022-12-11T11:15:05.879Z,19.33
2022-12-11T11:17:35.388Z,16.90
2022-12-11T11:20:12.852Z,19.25
2022-12-11T11:22:45.315Z,18.23
2022-12-11T11:25:26.413Z,17.63
2022-12-11T11:28:02.392Z,19.02
2022-12-11T11:30:31.717Z,15.48
2022-12-11T11:33:02.242Z,17.75
2022-12-11T11:35:31.213Z,16.35
2022-12-11T11:38:18.507Z,16.08
2022-12-11T11:40:49.830Z,18.75
2022-12-11T11:43:29.123Z,17.02
2022-12-11T11:46:02.631Z,18.27
2022-12-11T11:48:53.667Z,18.08
2022-12-11T11:51:27.152Z,18.00
2022-12-11T11:53:57.917Z,19.35
2022-12-11T11:56:36.224Z,16.08
2022-12-11T11:59:25.123Z,15.40
2022-12-11T12:01:55.433Z,18.58
2022-12-11T12:04:22.486Z,17.85
2022-12-11T12:06:57.895Z,16.55
2022-12-11T12:09:53.376Z,20.75
2022-12-11T12:12:45.321Z,17.15
2022-12-11T12:15:34.839Z,20.33
2022-12-11T12:18:11.908Z,21.27
2022-12-11T12:20:51.944Z,21.30
2022-12-11T12:23:53.830Z,20.90
2022-12-11T12:26:32.380Z,20.00
2022-12-11T12:29:28.708Z,20.98
2022-12-11T12:32:25.157Z,20.80
2022-12-11T12:35:23.361Z,20.95
2022-12-11T12:38:03.470Z,20.20
2022-12-11T12:40:35.108Z,21.30
2022-12-11T12:43:36.637Z,20.52
2022-12-11T12:46:22.733Z,20.48
2022-12-11T12:48:51.838Z,22.52
2022-12-11T12:51:18.930Z,23.92
2022-12-11T12:54:01.436Z,20.88
2022-12-11T12:56:31.756Z,19.58
2022-12-11T12:58:58.297Z,20.52
2022-12-11T13:01:27.351Z,21.85
2022-12-11T13:04:04.433Z,20.52
2022-12-11T13:06:37.796Z,18.48
2022-12-11T13:09:15.006Z,19.80
2022-12-11T13:11:41.766Z,17.17
2022-12-11T13:14:27.927Z,23.42
2022-12-11T13:17:06.077Z,21.40
2022-12-11T13:19:39.160Z,23.65
2022-12-11T13:24:57.218Z,19.05
2022-12-11T13:27:35.693Z,21.48
2022-12-11T13:30:26.084Z,22.35
2022-12-11T13:33:03.394Z,20.55
2022-12-11T13:35:31.487Z,18.17
2022-12-11T13:38:04.316Z,19.60
2022-12-11T13:40:42.866Z,15.98
2022-12-11T13:43:18.391Z,18.70
2022-12-11T13:45:54.750Z,17.83
2022-12-11T13:50:56.812Z,21.85
2022-12-11T13:53:23.847Z,20.50
2022-12-11T13:55:59.155Z,18.23
2022-12-11T13:58:25.853Z,19.30
2022-12-11T14:01:11.390Z,22.63
2022-12-11T14:03:54.436Z,22.80
2022-12-11T14:06:21.297Z,16.30
2022-12-11T14:08:55.087Z,20.42
2022-12-11T14:11:24.808Z,19.90
2022-12-11T14:13:51.192Z,34.30
2022-12-11T14:16:23.429Z,19.17
2022-12-11T14:18:51.881Z,20.27
2022-12-11T14:21:20.727Z,22.77
2022-12-11T14:24:03.360Z,22.70
2022-12-11T14:29:01.026Z,20.80
2022-12-11T14:31:39.764Z,18.33
2022-12-11T14:34:12.250Z,22.48
2022-12-11T14:36:39.556Z,27.23
2022-12-11T14:39:12.405Z,21.88
2022-12-11T14:41:45.960Z,26.83
2022-12-11T14:44:17.708Z,23.02
2022-12-11T14:46:48.739Z,24.70
2022-12-11T14:49:26.765Z,28.17
2022-12-11T14:51:57.229Z,24.70
2022-12-11T14:54:51.295Z,22.88
2022-12-11T14:57:21.379Z,26.48
2022-12-11T14:59:51.236Z,27.48
2022-12-11T15:02:28.481Z,23.92
2022-12-11T15:05:19.935Z,40.47
2022-12-11T15:07:57.402Z,26.23
2022-12-11T15:10:31.422Z,27.02
2022-12-11T15:12:59.047Z,24.50
2022-12-11T15:15:28.148Z,22.27
2022-12-11T15:18:16.457Z,23.90
2022-12-11T15:20:42.879Z,24.17
2022-12-11T15:23:11.815Z,19.15
2022-12-11T15:25:50.955Z,22.98
2022-12-11T15:28:47.000Z,23.92
2022-12-11T15:31:32.231Z,24.98
2022-12-11T15:33:59.209Z,22.38
2022-12-11T15:36:32.165Z,23.15
2022-12-11T15:38:58.881Z,22.23
2022-12-11T15:41:25.802Z,27.83
2022-12-11T15:43:58.505Z,25.63
2022-12-11T15:46:25.706Z,24.88
2022-12-11T15:48:52.214Z,25.02
2022-12-11T15:51:18.699Z,24.55
2022-12-11T15:53:45.071Z,23.70
2022-12-11T15:56:17.572Z,24.73
2022-12-11T15:58:46.330Z,24.60
2022-12-11T16:01:12.716Z,25.27
2022-12-11T16:03:39.122Z,24.08
2022-12-11T16:06:05.711Z,24.55
2022-12-11T16:08:32.367Z,32.80
2022-12-11T16:10:58.843Z,21.88
2022-12-11T16:13:25.276Z,23.90
2022-12-11T16:15:51.932Z,25.40
2022-12-11T16:18:21.886Z,27.85
2022-12-11T16:20:48.891Z,25.58
2022-12-11T16:23:17.141Z,23.42
2022-12-11T16:25:45.592Z,22.70
2022-12-11T16:28:14.039Z,24.98
2022-12-11T16:30:40.856Z,21.45
2022-12-11T16:33:12.488Z,24.58
2022-12-11T16:35:40.095Z,24.60
2022-12-11T16:38:08.036Z,23.23
2022-12-11T16:40:34.733Z,23.08
2022-12-11T16:43:01.348Z,23.23
2022-12-11T16:45:28.080Z,22.55
2022-12-11T16:47:55.035Z,22.23
2022-12-11T16:50:22.444Z,26.70
2022-12-11T16:52:49.772Z,24.98
2022-12-11T16:55:16.569Z,22.27
2022-12-11T16:57:43.337Z,24.90
2022-12-11T17:00:14.532Z,26.17
2022-12-11T17:02:41.263Z,25.73
2022-12-11T17:05:08.237Z,25.38
2022-12-11T17:07:34.757Z,23.70
2022-12-11T17:10:02.957Z,24.52
2022-12-11T17:12:32.835Z,26.40
2022-12-11T17:14:59.918Z,24.15
2022-12-11T17:17:26.573Z,25.33
2022-12-11T17:19:52.970Z,23.75
2022-12-11T17:22:19.446Z,25.88
2022-12-11T17:24:45.838Z,26.02
2022-12-11T17:27:12.369Z,25.95
2022-12-11T17:29:38.833Z,24.67
2022-12-11T17:32:05.583Z,25.50
2022-12-11T17:34:37.930Z,22.50
2022-12-11T17:37:05.326Z,24.20
2022-12-11T17:39:31.841Z,25.77
2022-12-11T17:41:58.273Z,21.80
2022-12-11T17:44:26.461Z,26.40
2022-12-11T17:46:52.989Z,23.10
2022-12-11T17:49:19.756Z,26.27
2022-12-11T17:51:46.189Z,23.92
2022-12-11T17:54:12.585Z,31.65
2022-12-11T17:56:39.091Z,29.52
2022-12-11T17:59:05.504Z,25.15
2022-12-11T18:01:32.673Z,27.52
2022-12-11T18:04:01.416Z,28.35
2022-12-11T18:06:28.441Z,26.00
2022-12-11T18:08:54.833Z,28.48
2022-12-11T18:11:21.709Z,30.95
2022-12-11T18:13:49.279Z,27.95
2022-12-11T18:16:28.259Z,28.10
2022-12-11T18:18:54.887Z,21.90
2022-12-11T18:21:24.750Z,25.38
2022-12-11T18:23:51.742Z,27.40
2022-12-11T18:26:19.967Z,29.88
2022-12-11T18:28:47.961Z,27.63
2022-12-11T18:31:15.157Z,27.55
2022-12-11T18:33:43.676Z,28.15
2022-12-11T18:36:11.947Z,28.63
2022-12-11T18:38:39.658Z,29.65
2022-12-11T18:41:07.792Z,29.48
2022-12-11T18:43:34.693Z,39.35
2022-12-11T18:46:05.355Z,26.30
2022-12-11T18:48:31.765Z,28.48
2022-12-11T18:50:58.126Z,23.38
2022-12-11T18:53:24.480Z,26.25
2022-12-11T18:55:53.485Z,29.58
2022-12-11T18:58:23.740Z,26.70
2022-12-11T19:00:50.238Z,27.63
2022-12-11T19:03:16.592Z,34.47
2022-12-11T19:05:43.792Z,33.33
2022-12-11T19:08:13.696Z,26.85
2022-12-11T19:10:42.624Z,28.55
2022-12-11T19:13:09.171Z,28.63
2022-12-11T19:15:41.444Z,26.92
2022-12-11T19:18:08.097Z,30.33
2022-12-11T19:20:55.624Z,32.50
2022-12-11T19:23:30.180Z,24.50
2022-12-11T19:25:56.555Z,27.85
2022-12-11T19:28:22.913Z,27.38
2022-12-11T19:30:49.701Z,25.65
2022-12-11T19:33:16.743Z,27.23
2022-12-11T19:35:43.157Z,26.98
2022-12-11T19:38:09.585Z,28.45
2022-12-11T19:40:43.599Z,30.88
2022-12-11T19:43:10.345Z,30.75
2022-12-11T19:45:37.380Z,34.75
2022-12-11T19:48:04.243Z,31.92
2022-12-11T19:50:30.696Z,33.85
2022-12-11T19:52:57.040Z,27.85
2022-12-11T19:55:23.417Z,30.60
2022-12-11T19:57:49.821Z,30.60
2022-12-11T20:00:16.465Z,26.88
2022-12-11T20:02:42.995Z,24.70
2022-12-11T20:05:10.040Z,29.70
2022-12-11T20:07:36.982Z,29.23
2022-12-11T20:10:03.607Z,27.55
2022-12-11T20:12:30.139Z,25.73
2022-12-11T20:14:56.469Z,31.63
2022-12-11T20:17:22.953Z,29.75
2022-12-11T20:19:49.332Z,30.50
2022-12-11T20:22:15.681Z,31.80
2022-12-11T20:24:42.052Z,30.10
2022-12-11T20:27:09.407Z,32.35
2022-12-11T20:29:35.833Z,43.95
2022-12-11T20:32:02.270Z,36.10
2022-12-11T20:34:28.692Z,32.88
2022-12-11T20:36:56.178Z,21.02
2022-12-11T20:39:22.841Z,30.55
2022-12-11T20:41:49.438Z,31.67
2022-12-11T20:44:15.853Z,28.55
2022-12-11T20:46:42.211Z,31.08
2022-12-11T20:49:12.771Z,33.72
2022-12-11T20:51:40.141Z,38.65
2022-12-11T20:54:06.626Z,35.58
2022-12-11T20:56:33.049Z,35.92
2022-12-11T20:59:00.749Z,32.03
2022-12-11T21:01:30.026Z,31.75
2022-12-11T21:03:57.250Z,34.40
2022-12-11T21:06:32.669Z,32.97
2022-12-11T21:09:01.681Z,33.13
2022-12-11T21:11:28.153Z,35.30
2022-12-11T21:13:55.109Z,32.95
2022-12-11T21:16:22.118Z,30.33
2022-12-11T21:18:48.963Z,32.42
2022-12-11T21:21:16.520Z,28.50
2022-12-11T21:23:43.593Z,31.90
2022-12-11T21:26:10.156Z,26.10
2022-12-11T21:28:36.551Z,27.75
2022-12-11T21:31:14.368Z,29.15
2022-12-11T21:33:40.838Z,30.98
2022-12-11T21:36:09.151Z,35.17
2022-12-11T21:38:35.501Z,30.23
2022-12-11T21:41:13.505Z,40.95
2022-12-11T21:44:00.495Z,31.40
2022-12-11T21:46:28.225Z,31.40
2022-12-11T21:48:54.954Z,26.40
2022-12-11T21:51:34.080Z,33.80
2022-12-11T21:54:04.093Z,35.10
2022-12-11T21:56:31.912Z,34.42
2022-12-11T21:58:58.435Z,30.35
2022-12-11T22:01:27.741Z,34.17
2022-12-11T22:03:54.553Z,30.08
2022-12-11T22:06:21.218Z,34.70
2022-12-11T22:08:49.132Z,33.17
2022-12-11T22:11:21.583Z,34.67
2022-12-11T22:13:48.086Z,31.10
2022-12-11T22:16:14.603Z,31.83
2022-12-11T22:18:41.167Z,30.80
2022-12-11T22:21:07.637Z,29.58
2022-12-11T22:23:34.016Z,30.83
2022-12-11T22:26:00.556Z,28.70
2022-12-11T22:28:27.677Z,28.25
2022-12-11T22:30:54.254Z,28.02
2022-12-11T22:33:20.706Z,33.10
2022-12-11T22:35:47.170Z,28.35
2022-12-11T22:38:13.533Z,33.65
2022-12-11T22:40:41.450Z,33.63
2022-12-11T22:43:07.876Z,33.70
2022-12-11T22:45:38.781Z,31.08
2022-12-11T22:48:06.252Z,34.05
2022-12-11T22:50:32.800Z,30.88
2022-12-11T22:52:59.139Z,25.63
2022-12-11T22:55:25.946Z,31.52
2022-12-11T22:57:52.292Z,36.13
2022-12-11T23:00:18.934Z,37.42
2022-12-11T23:02:45.410Z,33.63
2022-12-11T23:05:12.409Z,36.00
2022-12-11T23:07:39.422Z,39.67
2022-12-11T23:10:08.053Z,35.55
2022-12-11T23:12:35.229Z,44.50
2022-12-11T23:15:02.531Z,35.65
2022-12-11T23:17:29.017Z,37.30
2022-12-11T23:19:55.419Z,37.47
2022-12-11T23:22:21.775Z,41.17
2022-12-11T23:24:48.293Z,37.92
2022-12-11T23:27:15.246Z,35.22
2022-12-11T23:29:41.901Z,34.25
2022-12-11T23:32:08.265Z,36.85
2022-12-11T23:34:34.615Z,35.47
2022-12-11T23:37:00.987Z,33.92
2022-12-11T23:39:27.361Z,33.53
2022-12-11T23:41:53.746Z,39.17
2022-12-11T23:44:20.078Z,36.95
2022-12-11T23:46:46.443Z,40.67
2022-12-11T23:49:12.780Z,39.00
2022-12-11T23:51:39.144Z,32.47
2022-12-11T23:54:05.637Z,31.95
2022-12-11T23:56:32.083Z,34.45
2022-12-11T23:58:59.261Z,36.85
